createdAt,value
2022-08-28T00:01:15.970Z,100792.47
2022-08-28T00:03:47.547Z,100799.75
2022-08-28T00:06:19.456Z,100798.41
2022-08-28T00:08:50.965Z,100792.75
2022-08-28T00:11:23.493Z,100792.47
2022-08-28T00:13:55.006Z,100794.09
2022-08-28T00:16:30.789Z,100802.19
2022-08-28T00:19:02.332Z,100797.59
2022-08-28T00:21:34.426Z,100799.75
2022-08-28T00:24:05.935Z,100806.50
2022-08-28T00:26:56.696Z,100803.53
2022-08-28T00:29:28.191Z,100807.03
2022-08-28T00:32:00.085Z,100813.53
2022-08-28T00:34:33.524Z,100817.28
2022-08-28T00:37:05.735Z,100816.72
2022-08-28T00:39:37.259Z,100525.69
2022-08-28T00:42:10.456Z,100808.63
2022-08-28T00:44:41.960Z,100808.09
2022-08-28T00:47:14.310Z,100809.72
2022-08-28T00:49:45.842Z,100818.06
2022-08-28T00:52:18.360Z,100809.97
2022-08-28T00:54:59.210Z,100812.41
2022-08-28T00:57:31.781Z,100809.16
2022-08-28T01:00:03.680Z,100808.63
2022-08-28T01:02:35.418Z,100805.66
2022-08-28T01:05:09.890Z,100808.63
2022-08-28T01:07:41.945Z,100802.13
2022-08-28T01:10:13.822Z,100795.13
2022-08-28T01:12:45.384Z,100802.69
2022-08-28T01:15:17.968Z,100803.47
2022-08-28T01:17:49.492Z,100806.19
2022-08-28T01:20:21.446Z,100804.84
2022-08-28T01:22:53.724Z,100810.22
2022-08-28T01:25:25.662Z,100814.00
2022-08-28T01:27:57.277Z,100808.34
2022-08-28T01:30:29.499Z,100809.44
2022-08-28T01:33:01.038Z,100812.41
2022-08-28T01:35:33.266Z,100800.00
2022-08-28T01:38:04.895Z,100808.63
2022-08-28T01:40:36.827Z,100808.88
2022-08-28T01:43:08.785Z,100811.31
2022-08-28T01:45:40.307Z,100805.94
2022-08-28T01:48:11.900Z,100812.94
2022-08-28T01:50:43.852Z,100809.72
2022-08-28T01:53:15.569Z,100810.78
2022-08-28T01:55:47.532Z,100799.44
2022-08-28T01:58:19.048Z,100808.09
2022-08-28T02:00:50.851Z,100804.84
2022-08-28T02:03:22.356Z,100804.88
2022-08-28T02:05:54.256Z,100809.19
2022-08-28T02:08:25.776Z,100804.88
2022-08-28T02:10:57.624Z,100814.59
2022-08-28T02:13:29.134Z,100811.91
2022-08-28T02:16:01.917Z,100811.34
2022-08-28T02:18:33.516Z,100816.75
2022-08-28T02:21:05.494Z,100812.97
2022-08-28T02:23:37.040Z,100815.13
2022-08-28T02:26:08.884Z,100817.84
2022-08-28T02:28:41.080Z,100818.34
2022-08-28T02:31:13.310Z,100817.25
2022-08-28T02:33:44.931Z,100809.69
2022-08-28T02:36:16.810Z,100812.38
2022-08-28T02:38:48.331Z,100822.09
2022-08-28T02:41:21.078Z,100818.84
2022-08-28T02:43:53.219Z,100822.34
2022-08-28T02:46:26.957Z,100823.97
2022-08-28T02:48:58.574Z,100824.50
2022-08-28T02:51:30.539Z,100813.38
2022-08-28T02:54:02.057Z,100824.69
2022-08-28T02:56:34.841Z,100823.09
2022-08-28T02:59:06.547Z,100824.41
2022-08-28T03:01:38.106Z,100816.28
2022-08-28T03:04:10.034Z,100820.31
2022-08-28T03:06:42.039Z,100821.91
2022-08-28T03:09:13.908Z,100818.38
2022-08-28T03:11:45.648Z,100825.13
2022-08-28T03:14:17.549Z,100823.50
2022-08-28T03:16:49.081Z,100822.38
2022-08-28T03:19:20.930Z,100825.34
2022-08-28T03:21:52.441Z,100822.09
2022-08-28T03:24:25.252Z,100826.97
2022-08-28T03:26:56.805Z,100824.53
2022-08-28T03:29:28.629Z,100825.09
2022-08-28T03:32:00.321Z,100828.03
2022-08-28T03:34:33.679Z,100829.09
2022-08-28T03:37:05.175Z,100830.19
2022-08-28T03:39:37.040Z,100840.13
2022-08-28T03:42:08.582Z,100828.03
2022-08-28T03:44:42.056Z,100838.78
2022-08-28T03:47:13.721Z,100832.84
2022-08-28T03:49:47.013Z,100832.31
2022-08-28T03:52:18.638Z,100827.72
2022-08-28T03:54:50.586Z,100831.75
2022-08-28T03:57:22.128Z,100833.34
2022-08-28T03:59:54.004Z,100830.94
2022-08-28T04:02:25.511Z,100837.91
2022-08-28T04:04:57.426Z,100842.78
2022-08-28T04:07:28.924Z,100853.81
2022-08-28T04:10:00.789Z,100846.00
2022-08-28T04:12:35.267Z,100852.19
2022-08-28T04:15:07.413Z,100855.16
2022-08-28T04:17:38.935Z,100862.94
2022-08-28T04:20:11.308Z,100858.09
2022-08-28T04:22:43.176Z,100861.59
2022-08-28T04:25:17.065Z,100864.56
2022-08-28T04:27:48.558Z,100864.81
2022-08-28T04:30:21.045Z,100877.13
2022-08-28T04:32:52.531Z,100873.88
2022-08-28T04:35:25.822Z,100876.59
2022-08-28T04:37:58.983Z,100883.03
2022-08-28T04:40:31.131Z,100883.84
2022-08-28T04:43:02.714Z,100891.19
2022-08-28T04:45:34.639Z,100894.47
2022-08-28T04:48:10.958Z,100888.00
2022-08-28T04:50:45.612Z,100891.78
2022-08-28T04:53:17.208Z,100880.72
2022-08-28T04:55:53.866Z,100888.72
2022-08-28T04:58:26.337Z,100883.13
2022-08-28T05:00:58.222Z,100880.72
2022-08-28T05:03:30.102Z,100890.16
2022-08-28T05:06:02.614Z,100892.56
2022-08-28T05:08:34.474Z,100892.81
2022-08-28T05:11:06.353Z,100888.22
2022-08-28T05:13:38.297Z,100892.88
2022-08-28T05:16:09.855Z,100903.09
2022-08-28T05:18:41.740Z,100893.81
2022-08-28T05:21:14.529Z,100892.44
2022-08-28T05:23:46.582Z,100903.31
2022-08-28T05:26:18.127Z,100898.69
2022-08-28T05:28:50.018Z,100905.22
2022-08-28T05:31:21.623Z,100907.91
2022-08-28T05:33:53.833Z,100908.03
2022-08-28T05:36:25.384Z,100910.94
2022-08-28T05:39:00.231Z,100918.47
2022-08-28T05:41:31.849Z,100917.94
2022-08-28T05:44:03.755Z,100916.06
2022-08-28T05:46:35.286Z,100922.84
2022-08-28T05:49:10.074Z,100917.72
2022-08-28T05:51:42.022Z,100916.06
2022-08-28T05:54:15.287Z,100919.94
2022-08-28T05:56:46.873Z,100927.44
2022-08-28T05:59:18.868Z,100919.91
2022-08-28T06:01:50.498Z,100916.78
2022-08-28T06:04:25.749Z,100923.50
2022-08-28T06:06:57.908Z,100921.66
2022-08-28T06:09:30.265Z,100924.72
2022-08-28T06:12:02.716Z,100920.84
2022-08-28T06:14:35.146Z,100917.38
2022-08-28T06:17:06.934Z,100917.31
2022-08-28T06:19:41.572Z,100919.22
2022-08-28T06:22:14.795Z,100917.88
2022-08-28T06:24:46.839Z,100921.38
2022-08-28T06:27:18.380Z,100924.66
2022-08-28T06:29:50.269Z,100921.69
2022-08-28T06:32:21.859Z,100932.28
2022-08-28T06:34:54.259Z,100929.06
2022-08-28T06:37:26.491Z,100933.44
2022-08-28T06:39:58.618Z,100927.72
2022-08-28T06:42:31.264Z,100934.28
2022-08-28T06:45:02.835Z,100931.47
2022-08-28T06:47:34.365Z,100939.03
2022-08-28T06:50:06.223Z,100943.09
2022-08-28T06:52:38.194Z,100946.31
2022-08-28T06:55:12.761Z,100955.25
2022-08-28T06:57:44.275Z,100957.78
2022-08-28T07:00:16.169Z,100955.34
2022-08-28T07:02:47.774Z,100959.94
2022-08-28T07:05:19.615Z,100963.72
2022-08-28T07:07:51.435Z,100968.88
2022-08-28T07:10:23.312Z,100966.19
2022-08-28T07:12:54.857Z,100966.72
2022-08-28T07:15:26.940Z,100966.72
2022-08-28T07:17:58.468Z,100974.00
2022-08-28T07:20:30.315Z,100986.72
2022-08-28T07:23:01.899Z,100972.84
2022-08-28T07:25:33.767Z,100982.91
2022-08-28T07:28:05.301Z,100988.78
2022-08-28T07:30:37.413Z,100979.25
2022-08-28T07:33:08.929Z,100985.75
2022-08-28T07:35:40.776Z,100999.84
2022-08-28T07:38:12.606Z,100987.56
2022-08-28T07:40:44.645Z,100984.84
2022-08-28T07:43:35.018Z,100984.38
2022-08-28T07:46:07.261Z,100991.75
2022-08-28T07:48:38.881Z,100995.84
2022-08-28T07:51:10.726Z,100991.59
2022-08-28T07:53:42.601Z,100992.47
2022-08-28T07:56:14.115Z,101000.25
2022-08-28T07:58:45.649Z,101006.78
2022-08-28T08:01:17.941Z,101007.31
2022-08-28T08:03:50.722Z,101005.53
2022-08-28T08:06:28.066Z,101002.16
2022-08-28T08:09:05.725Z,101011.13
2022-08-28T08:11:37.296Z,100997.91
2022-08-28T08:14:09.654Z,101003.88
2022-08-28T08:16:41.430Z,101007.97
2022-08-28T08:19:16.113Z,101006.31
2022-08-28T08:21:48.394Z,101014.19
2022-08-28T08:24:26.886Z,101009.47
2022-08-28T08:27:00.114Z,101014.19
2022-08-28T08:29:32.458Z,101013.91
2022-08-28T08:32:06.333Z,101007.13
2022-08-28T08:34:38.637Z,101013.63
2022-08-28T08:37:12.704Z,101020.94
2022-08-28T08:39:44.282Z,101031.31
2022-08-28T08:42:15.921Z,101028.13
2022-08-28T08:44:47.599Z,101037.56
2022-08-28T08:47:19.828Z,101030.56
2022-08-28T08:49:53.228Z,101029.75
2022-08-28T08:52:25.140Z,101028.44
2022-08-28T08:54:59.415Z,101028.44
2022-08-28T08:57:31.063Z,101038.69
2022-08-28T09:00:02.608Z,101031.50
2022-08-28T09:02:34.167Z,101017.63
2022-08-28T09:05:05.697Z,101030.03
2022-08-28T09:07:38.455Z,101025.69
2022-08-28T09:10:11.209Z,101027.66
2022-08-28T09:12:42.878Z,101030.31
2022-08-28T09:15:14.469Z,101032.72
2022-08-28T09:17:47.864Z,101042.69
2022-08-28T09:20:20.116Z,101033.84
2022-08-28T09:22:57.775Z,101031.91
2022-08-28T09:25:29.947Z,101034.63
2022-08-28T09:28:05.275Z,101032.94
2022-08-28T09:30:36.892Z,101035.81
2022-08-28T09:33:08.729Z,101037.03
2022-08-28T09:35:40.259Z,101037.59
2022-08-28T09:38:12.389Z,101035.31
2022-08-28T09:41:02.846Z,101043.16
2022-08-28T09:43:34.844Z,101046.25
2022-08-28T09:46:06.638Z,101053.25
2022-08-28T09:48:38.573Z,101046.34
2022-08-28T09:51:10.108Z,101048.31
2022-08-28T09:53:42.018Z,101050.47
2022-08-28T09:56:13.555Z,101052.03
2022-08-28T09:58:45.778Z,101055.16
2022-08-28T10:01:17.328Z,101058.91
2022-08-28T10:03:48.945Z,101060.91
2022-08-28T10:06:20.602Z,101062.69
2022-08-28T10:08:52.432Z,101057.03
2022-08-28T10:11:24.309Z,101061.09
2022-08-28T10:13:55.845Z,101070.91
2022-08-28T10:16:29.088Z,101067.75
2022-08-28T10:19:00.681Z,101068.84
2022-08-28T10:21:32.527Z,101059.38
2022-08-28T10:24:05.308Z,101067.97
2022-08-28T10:26:37.262Z,101063.25
2022-08-28T10:29:08.772Z,101064.41
2022-08-28T10:31:42.318Z,101072.03
2022-08-28T10:36:47.139Z,101081.53
2022-08-28T10:39:18.666Z,101083.50
2022-08-28T10:41:50.695Z,101089.72
2022-08-28T10:44:22.249Z,101090.03
2022-08-28T10:46:54.231Z,101095.88
2022-08-28T10:49:28.842Z,101101.13
2022-08-28T10:52:00.785Z,101097.50
2022-08-28T10:54:32.736Z,101099.47
2022-08-28T10:57:04.588Z,101084.94
2022-08-28T10:59:42.175Z,101096.88
2022-08-28T11:02:14.393Z,101103.59
2022-08-28T11:04:46.028Z,101102.53
2022-08-28T11:07:18.054Z,101100.16
2022-08-28T11:09:49.557Z,101100.19
2022-08-28T11:12:21.381Z,101105.91
2022-08-28T11:14:52.876Z,101120.56
2022-08-28T11:17:30.838Z,101112.69
2022-08-28T11:20:02.373Z,101115.47
2022-08-28T11:22:34.455Z,101111.00
2022-08-28T11:25:09.602Z,101118.06
2022-08-28T11:27:41.766Z,101118.63
2022-08-28T11:30:14.985Z,101120.25
2022-08-28T11:32:47.765Z,101116.44
2022-08-28T11:35:19.288Z,101127.31
2022-08-28T11:37:51.252Z,101131.16
2022-08-28T11:40:22.767Z,101131.41
2022-08-28T11:42:54.615Z,101129.25
2022-08-28T11:45:26.119Z,101131.97
2022-08-28T11:47:58.731Z,101121.41
2022-08-28T11:50:30.280Z,101125.72
2022-08-28T11:53:02.136Z,101133.00
2022-08-28T11:55:33.922Z,101114.84
2022-08-28T12:00:36.246Z,101122.47
2022-08-28T12:03:07.742Z,101120.59
2022-08-28T12:05:39.617Z,101119.47
2022-08-28T12:08:11.483Z,101122.78
2022-08-28T12:10:45.023Z,101122.22
2022-08-28T12:13:16.536Z,101113.56
2022-08-28T12:15:48.396Z,101116.81
2022-08-28T12:18:20.540Z,101121.66
2022-08-28T12:20:54.016Z,101125.47
2022-08-28T12:23:25.571Z,101120.06
2022-08-28T12:25:57.394Z,101126.81
2022-08-28T12:28:28.900Z,101124.88
2022-08-28T12:31:01.008Z,101123.75
2022-08-28T12:33:32.736Z,101119.72
2022-08-28T12:36:04.669Z,101120.81
2022-08-28T12:38:36.271Z,101120.25
2022-08-28T12:41:08.167Z,101128.63
2022-08-28T12:43:40.925Z,101118.63
2022-08-28T12:46:19.351Z,101120.78
2022-08-28T12:48:51.633Z,101119.44
2022-08-28T12:51:23.559Z,101109.53
2022-08-28T12:53:55.382Z,101116.59
2022-08-28T12:56:30.317Z,101116.72
2022-08-28T12:59:02.108Z,101122.84
2022-08-28T13:01:34.318Z,101114.97
2022-08-28T13:04:05.898Z,101106.97
2022-08-28T13:06:37.759Z,101113.78
2022-08-28T13:09:09.259Z,101115.03
2022-08-28T13:11:41.146Z,101113.66
2022-08-28T13:14:12.644Z,101110.94
2022-08-28T13:16:45.235Z,101107.78
2022-08-28T13:19:16.745Z,101100.84
2022-08-28T13:21:48.566Z,101104.94
2022-08-28T13:24:20.046Z,101099.16
2022-08-28T13:26:51.907Z,101096.09
2022-08-28T13:29:23.409Z,101101.94
2022-08-28T13:31:55.337Z,101097.50
2022-08-28T13:34:26.920Z,101096.19
2022-08-28T13:36:59.966Z,101092.69
2022-08-28T13:39:31.885Z,101096.84
2022-08-28T13:42:03.746Z,101087.38
2022-08-28T13:44:35.252Z,101086.50
2022-08-28T13:47:07.090Z,101081.50
2022-08-28T13:49:38.599Z,101085.25
2022-08-28T13:52:10.442Z,101079.00
2022-08-28T13:54:43.602Z,101083.06
2022-08-28T13:57:17.342Z,101078.78
2022-08-28T13:59:51.347Z,101074.78
2022-08-28T14:02:45.969Z,101079.03
2022-08-28T14:05:18.126Z,101073.78
2022-08-28T14:07:49.922Z,101087.84
2022-08-28T14:10:21.677Z,101082.81
2022-08-28T14:12:53.583Z,101074.00
2022-08-28T14:15:25.174Z,101079.63
2022-08-28T14:17:57.199Z,101080.69
2022-08-28T14:20:29.264Z,101075.19
2022-08-28T14:23:01.385Z,101072.25
2022-08-28T14:25:37.062Z,101067.63
2022-08-28T14:28:11.050Z,101067.69
2022-08-28T14:30:42.546Z,101065.59
2022-08-28T14:33:17.116Z,101064.69
2022-08-28T14:35:49.049Z,101066.94
2022-08-28T14:38:20.986Z,101053.13
2022-08-28T14:40:52.498Z,101062.69
2022-08-28T14:43:27.041Z,101058.41
2022-08-28T14:45:58.602Z,101055.44
2022-08-28T14:48:30.701Z,101053.22
2022-08-28T14:51:02.402Z,101064.16
2022-08-28T14:53:34.192Z,101050.31
2022-08-28T14:56:05.686Z,101051.44
2022-08-28T14:58:37.630Z,101050.63
2022-08-28T15:01:09.220Z,101041.50
2022-08-28T15:03:41.779Z,101052.13
2022-08-28T15:06:13.995Z,101053.69
2022-08-28T15:08:46.506Z,101044.75
2022-08-28T15:11:18.716Z,101051.31
2022-08-28T15:13:50.954Z,101046.31
2022-08-28T15:16:24.689Z,101039.78
2022-08-28T15:18:59.759Z,101037.94
2022-08-28T15:21:32.656Z,101031.19
2022-08-28T15:24:04.594Z,101032.91
2022-08-28T15:26:36.773Z,101032.69
2022-08-28T15:29:08.788Z,101030.72
2022-08-28T15:31:40.354Z,101028.91
2022-08-28T15:34:13.665Z,101026.88
2022-08-28T15:36:45.337Z,101037.50
2022-08-28T15:39:45.863Z,101034.34
2022-08-28T15:42:17.494Z,101029.69
2022-08-28T15:44:49.033Z,101027.09
2022-08-28T15:47:20.527Z,101028.44
2022-08-28T15:49:52.242Z,101031.19
2022-08-28T15:52:25.086Z,101036.53
2022-08-28T15:54:57.929Z,101032.53
2022-08-28T15:57:29.443Z,101027.34
2022-08-28T16:00:01.427Z,101025.44
2022-08-28T16:02:33.002Z,101028.31
2022-08-28T16:05:04.973Z,101029.84
2022-08-28T16:07:36.510Z,101030.38
2022-08-28T16:10:08.386Z,101034.75
2022-08-28T16:12:40.864Z,101032.19
2022-08-28T16:15:14.096Z,101021.59
2022-08-28T16:17:50.865Z,101035.97
2022-08-28T16:20:22.668Z,101022.97
2022-08-28T16:22:54.235Z,101035.91
2022-08-28T16:25:26.205Z,101027.22
2022-08-28T16:27:57.770Z,101033.97
2022-08-28T16:30:30.715Z,101029.16
2022-08-28T16:33:02.306Z,101032.41
2022-08-28T16:35:35.400Z,101027.84
2022-08-28T16:38:08.964Z,101030.91
2022-08-28T16:40:41.729Z,101032.88
2022-08-28T16:43:13.275Z,101030.16
2022-08-28T16:45:45.219Z,101032.94
2022-08-28T16:48:16.721Z,101035.09
2022-08-28T16:50:48.524Z,101037.50
2022-08-28T16:53:27.005Z,101037.84
2022-08-28T16:55:59.043Z,101043.03
2022-08-28T16:58:30.538Z,101038.97
2022-08-28T17:01:02.540Z,101036.63
2022-08-28T17:03:34.586Z,101036.13
2022-08-28T17:06:06.454Z,101040.75
2022-08-28T17:08:38.553Z,101033.75
2022-08-28T17:11:10.680Z,101034.38
2022-08-28T17:13:42.204Z,101038.81
2022-08-28T17:16:14.109Z,101033.16
2022-08-28T17:18:47.956Z,101040.50
2022-08-28T17:21:42.931Z,101036.50
2022-08-28T17:24:14.455Z,101042.50
2022-08-28T17:26:46.403Z,101046.91
2022-08-28T17:29:17.896Z,101039.91
2022-08-28T17:31:49.829Z,101050.78
2022-08-28T17:34:21.458Z,101044.88
2022-08-28T17:36:53.484Z,101058.47
2022-08-28T17:39:25.550Z,101048.72
2022-08-28T17:41:57.477Z,101057.72
2022-08-28T17:44:28.977Z,101060.75
2022-08-28T17:47:01.333Z,101053.19
2022-08-28T17:49:33.257Z,101056.50
2022-08-28T17:52:04.755Z,101063.06
2022-08-28T17:54:36.700Z,101067.19
2022-08-28T17:57:08.224Z,101065.81
2022-08-28T17:59:40.511Z,101063.94
2022-08-28T18:02:16.443Z,101074.81
2022-08-28T18:04:48.384Z,101071.59
2022-08-28T18:07:19.915Z,101076.16
2022-08-28T18:09:55.230Z,101083.25
2022-08-28T18:12:26.724Z,101087.56
2022-08-28T18:14:58.660Z,101082.72
2022-08-28T18:17:30.187Z,101087.06
2022-08-28T18:20:02.232Z,101087.31
2022-08-28T18:22:33.804Z,101089.75
2022-08-28T18:25:05.319Z,101091.38
2022-08-28T18:27:36.824Z,101094.59
2022-08-28T18:30:08.681Z,101099.75
2022-08-28T18:32:40.208Z,101099.44
2022-08-28T18:35:12.183Z,101105.38
2022-08-28T18:37:44.081Z,101107.53
2022-08-28T18:40:15.997Z,101109.13
2022-08-28T18:42:47.794Z,101102.63
2022-08-28T18:45:19.836Z,101112.34
2022-08-28T18:47:52.307Z,101112.06
2022-08-28T18:50:26.028Z,101111.22
2022-08-28T18:52:57.763Z,101115.00
2022-08-28T18:55:29.345Z,101124.66
2022-08-28T18:58:03.946Z,101126.81
2022-08-28T19:00:37.428Z,101125.09
2022-08-28T19:03:09.581Z,101134.53
2022-08-28T19:05:41.737Z,101133.94
2022-08-28T19:08:14.642Z,101131.47
2022-08-28T19:10:46.601Z,101136.81
2022-08-28T19:13:18.596Z,101142.75
2022-08-28T19:15:50.787Z,101139.44
2022-08-28T19:18:22.719Z,101143.25
2022-08-28T19:20:54.226Z,101141.88
2022-08-28T19:23:26.089Z,101149.13
2022-08-28T19:25:57.599Z,101149.94
2022-08-28T19:28:29.651Z,101153.44
2022-08-28T19:31:01.242Z,101152.09
2022-08-28T19:33:33.140Z,101163.38
2022-08-28T19:36:04.630Z,101162.84
2022-08-28T19:38:36.184Z,101157.69
2022-08-28T19:41:07.946Z,101165.25
2022-08-28T19:43:43.197Z,101167.41
2022-08-28T19:46:18.355Z,101169.56
2022-08-28T19:48:51.778Z,101167.69
2022-08-28T19:51:24.151Z,101165.25
2022-08-28T19:53:58.624Z,101174.94
2022-08-28T19:56:31.968Z,101165.50
2022-08-28T19:59:03.582Z,101171.16
2022-08-28T20:01:38.125Z,101169.75
2022-08-28T20:04:09.796Z,101175.16
2022-08-28T20:06:41.678Z,101181.31
2022-08-28T20:09:13.348Z,101174.22
2022-08-28T20:11:49.372Z,101181.19
2022-08-28T20:14:21.101Z,101178.72
2022-08-28T20:16:52.966Z,101185.91
2022-08-28T20:19:24.558Z,101188.88
2022-08-28T20:21:56.787Z,101188.25
2022-08-28T20:24:29.030Z,101189.59
2022-08-28T20:27:00.887Z,101193.88
2022-08-28T20:29:34.096Z,101195.97
2022-08-28T20:32:05.661Z,101195.91
2022-08-28T20:34:40.382Z,101204.75
2022-08-28T20:37:17.063Z,101199.06
2022-08-28T20:39:48.676Z,101207.34
2022-08-28T20:42:20.299Z,101198.16
2022-08-28T20:44:51.800Z,101203.47
2022-08-28T20:47:24.059Z,101209.38
2022-08-28T20:49:55.717Z,101200.38
2022-08-28T20:52:27.547Z,101205.47
2022-08-28T20:54:59.127Z,101207.28
2022-08-28T20:57:31.037Z,101201.03
2022-08-28T21:00:05.669Z,100982.38
2022-08-28T21:02:37.832Z,101199.84
2022-08-28T21:05:09.443Z,101213.25
2022-08-28T21:07:41.578Z,101209.66
2022-08-28T21:10:13.111Z,101210.88
2022-08-28T21:12:44.949Z,101206.22
2022-08-28T21:15:16.537Z,101209.41
2022-08-28T21:17:48.633Z,101211.22
2022-08-28T21:20:21.342Z,101223.84
2022-08-28T21:22:53.258Z,101217.00
2022-08-28T21:25:24.871Z,101221.50
2022-08-28T21:27:56.944Z,101216.63
2022-08-28T21:30:29.570Z,101217.56
2022-08-28T21:33:01.935Z,101222.06
2022-08-28T21:35:33.494Z,101216.28
2022-08-28T21:38:05.373Z,101218.91
2022-08-28T21:40:37.009Z,101220.94
2022-08-28T21:43:09.256Z,101218.13
2022-08-28T21:45:41.737Z,101217.81
2022-08-28T21:48:13.714Z,101213.16
2022-08-28T21:50:45.353Z,101206.88
2022-08-28T21:53:17.271Z,101214.03
2022-08-28T21:55:51.480Z,101216.66
2022-08-28T21:58:23.325Z,101217.13
2022-08-28T22:00:54.931Z,101224.63
2022-08-28T22:03:26.548Z,101227.56
2022-08-28T22:05:58.161Z,101233.66
2022-08-28T22:08:30.059Z,101232.69
2022-08-28T22:11:01.612Z,101228.03
2022-08-28T22:13:33.572Z,101232.00
2022-08-28T22:16:05.088Z,101238.94
2022-08-28T22:18:37.076Z,101245.34
2022-08-28T22:21:27.620Z,101240.13
2022-08-28T22:23:59.194Z,101245.50
2022-08-28T22:26:31.061Z,101243.28
2022-08-28T22:29:02.584Z,101236.78
2022-08-28T22:31:35.288Z,101236.19
2022-08-28T22:34:08.912Z,101239.13
2022-08-28T22:36:40.749Z,101233.41
2022-08-28T22:39:12.240Z,101237.59
2022-08-28T22:41:44.244Z,101236.44
2022-08-28T22:44:15.743Z,101242.28
2022-08-28T22:46:47.750Z,101251.75
2022-08-28T22:49:19.256Z,101254.44
2022-08-28T22:51:50.775Z,101255.97
2022-08-28T22:54:22.263Z,101250.03
2022-08-28T22:56:54.211Z,101254.00
2022-08-28T22:59:27.890Z,101257.06
2022-08-28T23:01:59.853Z,101261.00
2022-08-28T23:04:31.362Z,101258.31
2022-08-28T23:07:03.240Z,101255.03
2022-08-28T23:09:36.137Z,101255.75
2022-08-28T23:12:07.806Z,101250.63
2022-08-28T23:14:39.540Z,101253.53
2022-08-28T23:17:11.179Z,101252.50
2022-08-28T23:19:43.357Z,101246.53
2022-08-28T23:22:18.166Z,101251.31
2022-08-28T23:24:49.699Z,101247.81
2022-08-28T23:27:37.074Z,101245.03
2022-08-28T23:30:08.676Z,101243.63
2022-08-28T23:32:40.687Z,101252.16
2022-08-28T23:35:12.503Z,101252.84
2022-08-28T23:37:48.490Z,101254.94
2022-08-28T23:40:20.494Z,101253.78
2022-08-28T23:42:52.409Z,101254.69
2022-08-28T23:45:23.919Z,101250.81
2022-08-28T23:47:55.935Z,101244.75
2022-08-28T23:50:27.794Z,101251.16
2022-08-28T23:52:59.651Z,101248.94
2022-08-28T23:55:31.650Z,101245.44
2022-08-28T23:58:05.250Z,101256.63
